sensor_id;sensor_type;location;lat;lon;timestamp;P1;durP1;ratioP1;P2;durP2;ratioP2
12224;SDS011;6175;50.956;11.064;2023-02-01T00:02:04;6.50;;;3.90;;
12224;SDS011;6175;50.956;11.064;2023-02-01T00:04:31;8.02;;;3.65;;
12224;SDS011;6175;50.956;11.064;2023-02-01T00:06:58;8.93;;;3.80;;
12224;SDS011;6175;50.956;11.064;2023-02-01T00:09:26;6.95;;;3.38;;
12224;SDS011;6175;50.956;11.064;2023-02-01T00:11:53;9.10;;;3.95;;
12224;SDS011;6175;50.956;11.064;2023-02-01T00:14:20;8.55;;;3.70;;
12224;SDS011;6175;50.956;11.064;2023-02-01T00:16:47;4.97;;;3.53;;
12224;SDS011;6175;50.956;11.064;2023-02-01T00:19:17;10.13;;;3.65;;
12224;SDS011;6175;50.956;11.064;2023-02-01T00:21:44;5.07;;;3.25;;
12224;SDS011;6175;50.956;11.064;2023-02-01T00:24:12;6.30;;;3.45;;
12224;SDS011;6175;50.956;11.064;2023-02-01T00:26:40;7.03;;;3.40;;
12224;SDS011;6175;50.956;11.064;2023-02-01T00:29:09;6.35;;;3.42;;
12224;SDS011;6175;50.956;11.064;2023-02-01T00:31:38;6.93;;;3.40;;
12224;SDS011;6175;50.956;11.064;2023-02-01T00:34:06;5.85;;;3.60;;
12224;SDS011;6175;50.956;11.064;2023-02-01T00:36:35;8.93;;;3.60;;
12224;SDS011;6175;50.956;11.064;2023-02-01T00:39:02;9.35;;;3.38;;
12224;SDS011;6175;50.956;11.064;2023-02-01T00:41:28;8.38;;;3.60;;
12224;SDS011;6175;50.956;11.064;2023-02-01T00:43:57;6.78;;;3.50;;
12224;SDS011;6175;50.956;11.064;2023-02-01T00:46:23;6.80;;;3.55;;
12224;SDS011;6175;50.956;11.064;2023-02-01T00:48:51;6.93;;;3.53;;
12224;SDS011;6175;50.956;11.064;2023-02-01T00:51:18;8.70;;;3.83;;
12224;SDS011;6175;50.956;11.064;2023-02-01T00:53:48;9.30;;;3.95;;
12224;SDS011;6175;50.956;11.064;2023-02-01T00:56:15;8.40;;;3.70;;
12224;SDS011;6175;50.956;11.064;2023-02-01T00:58:43;6.60;;;3.72;;
12224;SDS011;6175;50.956;11.064;2023-02-01T01:01:11;11.13;;;4.20;;
12224;SDS011;6175;50.956;11.064;2023-02-01T01:03:39;9.75;;;3.67;;
12224;SDS011;6175;50.956;11.064;2023-02-01T01:06:08;6.05;;;2.97;;
12224;SDS011;6175;50.956;11.064;2023-02-01T01:08:36;7.20;;;3.95;;
12224;SDS011;6175;50.956;11.064;2023-02-01T01:11:05;9.13;;;4.07;;
12224;SDS011;6175;50.956;11.064;2023-02-01T01:13:33;7.47;;;3.25;;
12224;SDS011;6175;50.956;11.064;2023-02-01T01:16:00;9.55;;;3.75;;
12224;SDS011;6175;50.956;11.064;2023-02-01T01:18:28;9.57;;;3.70;;
12224;SDS011;6175;50.956;11.064;2023-02-01T01:20:56;8.05;;;3.88;;
12224;SDS011;6175;50.956;11.064;2023-02-01T01:23:23;7.40;;;3.65;;
12224;SDS011;6175;50.956;11.064;2023-02-01T01:25:50;6.90;;;3.30;;
12224;SDS011;6175;50.956;11.064;2023-02-01T01:28:19;6.95;;;3.90;;
12224;SDS011;6175;50.956;11.064;2023-02-01T01:30:46;6.43;;;3.10;;
12224;SDS011;6175;50.956;11.064;2023-02-01T01:33:13;6.63;;;3.35;;
12224;SDS011;6175;50.956;11.064;2023-02-01T01:35:41;7.60;;;3.20;;
12224;SDS011;6175;50.956;11.064;2023-02-01T01:38:09;7.95;;;3.38;;
12224;SDS011;6175;50.956;11.064;2023-02-01T01:40:36;5.82;;;3.70;;
12224;SDS011;6175;50.956;11.064;2023-02-01T01:43:03;7.78;;;3.40;;
12224;SDS011;6175;50.956;11.064;2023-02-01T01:45:37;7.07;;;3.17;;
12224;SDS011;6175;50.956;11.064;2023-02-01T01:48:05;8.93;;;3.33;;
12224;SDS011;6175;50.956;11.064;2023-02-01T01:50:35;8.50;;;3.60;;
12224;SDS011;6175;50.956;11.064;2023-02-01T01:53:04;8.60;;;3.33;;
12224;SDS011;6175;50.956;11.064;2023-02-01T01:55:35;7.80;;;3.17;;
12224;SDS011;6175;50.956;11.064;2023-02-01T01:58:06;12.38;;;3.53;;
12224;SDS011;6175;50.956;11.064;2023-02-01T02:00:37;9.57;;;3.38;;
12224;SDS011;6175;50.956;11.064;2023-02-01T02:03:06;5.63;;;2.72;;
12224;SDS011;6175;50.956;11.064;2023-02-01T02:05:37;8.13;;;3.40;;
12224;SDS011;6175;50.956;11.064;2023-02-01T02:08:04;7.80;;;3.78;;
12224;SDS011;6175;50.956;11.064;2023-02-01T02:10:32;7.30;;;2.95;;
12224;SDS011;6175;50.956;11.064;2023-02-01T02:13:17;8.15;;;3.45;;
12224;SDS011;6175;50.956;11.064;2023-02-01T02:15:48;7.07;;;3.03;;
12224;SDS011;6175;50.956;11.064;2023-02-01T02:18:26;9.50;;;4.25;;
12224;SDS011;6175;50.956;11.064;2023-02-01T02:21:09;5.55;;;3.40;;
12224;SDS011;6175;50.956;11.064;2023-02-01T02:23:45;8.48;;;3.50;;
12224;SDS011;6175;50.956;11.064;2023-02-01T02:26:40;10.90;;;3.75;;
12224;SDS011;6175;50.956;11.064;2023-02-01T02:29:30;7.93;;;3.08;;
12224;SDS011;6175;50.956;11.064;2023-02-01T02:32:36;7.30;;;3.25;;
12224;SDS011;6175;50.956;11.064;2023-02-01T02:35:31;7.25;;;3.40;;
12224;SDS011;6175;50.956;11.064;2023-02-01T02:38:08;10.43;;;3.63;;
12224;SDS011;6175;50.956;11.064;2023-02-01T02:40:43;5.07;;;3.00;;
12224;SDS011;6175;50.956;11.064;2023-02-01T02:43:16;7.60;;;3.88;;
12224;SDS011;6175;50.956;11.064;2023-02-01T02:46:06;8.55;;;3.80;;
12224;SDS011;6175;50.956;11.064;2023-02-01T02:49:00;7.00;;;3.58;;
12224;SDS011;6175;50.956;11.064;2023-02-01T02:51:34;7.13;;;3.38;;
12224;SDS011;6175;50.956;11.064;2023-02-01T02:54:23;6.93;;;3.63;;
12224;SDS011;6175;50.956;11.064;2023-02-01T02:57:13;8.90;;;3.65;;
12224;SDS011;6175;50.956;11.064;2023-02-01T03:00:02;6.32;;;3.63;;
12224;SDS011;6175;50.956;11.064;2023-02-01T03:02:49;8.35;;;3.75;;
12224;SDS011;6175;50.956;11.064;2023-02-01T03:05:35;9.82;;;3.97;;
12224;SDS011;6175;50.956;11.064;2023-02-01T03:08:10;11.32;;;4.13;;
12224;SDS011;6175;50.956;11.064;2023-02-01T03:10:41;7.85;;;4.05;;
12224;SDS011;6175;50.956;11.064;2023-02-01T03:13:22;7.15;;;3.40;;
12224;SDS011;6175;50.956;11.064;2023-02-01T03:15:54;9.52;;;3.58;;
12224;SDS011;6175;50.956;11.064;2023-02-01T03:18:26;9.07;;;3.75;;
12224;SDS011;6175;50.956;11.064;2023-02-01T03:20:59;7.75;;;3.55;;
12224;SDS011;6175;50.956;11.064;2023-02-01T03:23:31;8.68;;;3.72;;
12224;SDS011;6175;50.956;11.064;2023-02-01T03:26:00;6.55;;;3.50;;
12224;SDS011;6175;50.956;11.064;2023-02-01T03:28:29;4.22;;;2.83;;
12224;SDS011;6175;50.956;11.064;2023-02-01T03:30:57;6.65;;;3.20;;
12224;SDS011;6175;50.956;11.064;2023-02-01T03:33:25;10.90;;;3.55;;
12224;SDS011;6175;50.956;11.064;2023-02-01T03:35:59;9.98;;;3.20;;
12224;SDS011;6175;50.956;11.064;2023-02-01T03:38:34;4.88;;;2.97;;
12224;SDS011;6175;50.956;11.064;2023-02-01T03:41:08;7.35;;;3.05;;
12224;SDS011;6175;50.956;11.064;2023-02-01T03:43:40;7.63;;;2.50;;
12224;SDS011;6175;50.956;11.064;2023-02-01T03:46:15;6.07;;;2.55;;
12224;SDS011;6175;50.956;11.064;2023-02-01T03:48:46;5.70;;;2.88;;
12224;SDS011;6175;50.956;11.064;2023-02-01T03:51:15;5.93;;;2.10;;
12224;SDS011;6175;50.956;11.064;2023-02-01T03:53:47;5.50;;;2.40;;
12224;SDS011;6175;50.956;11.064;2023-02-01T03:56:15;5.45;;;2.50;;
12224;SDS011;6175;50.956;11.064;2023-02-01T03:58:44;7.40;;;2.58;;
12224;SDS011;6175;50.956;11.064;2023-02-01T04:01:24;4.40;;;2.33;;
12224;SDS011;6175;50.956;11.064;2023-02-01T04:03:52;4.05;;;2.15;;
12224;SDS011;6175;50.956;11.064;2023-02-01T04:06:19;4.53;;;2.60;;
12224;SDS011;6175;50.956;11.064;2023-02-01T04:08:48;5.05;;;2.53;;
12224;SDS011;6175;50.956;11.064;2023-02-01T04:11:15;5.15;;;2.42;;
12224;SDS011;6175;50.956;11.064;2023-02-01T04:13:42;3.30;;;2.30;;
12224;SDS011;6175;50.956;11.064;2023-02-01T04:16:09;6.10;;;2.65;;
12224;SDS011;6175;50.956;11.064;2023-02-01T04:18:36;7.05;;;3.00;;
12224;SDS011;6175;50.956;11.064;2023-02-01T04:21:04;7.03;;;2.90;;
12224;SDS011;6175;50.956;11.064;2023-02-01T04:23:31;3.70;;;2.90;;
12224;SDS011;6175;50.956;11.064;2023-02-01T04:26:03;5.20;;;3.10;;
12224;SDS011;6175;50.956;11.064;2023-02-01T04:28:30;7.50;;;3.55;;
12224;SDS011;6175;50.956;11.064;2023-02-01T04:30:58;6.78;;;3.63;;
12224;SDS011;6175;50.956;11.064;2023-02-01T04:33:25;8.38;;;3.67;;
12224;SDS011;6175;50.956;11.064;2023-02-01T04:35:52;9.80;;;4.13;;
12224;SDS011;6175;50.956;11.064;2023-02-01T04:38:19;6.32;;;3.80;;
12224;SDS011;6175;50.956;11.064;2023-02-01T04:40:47;6.63;;;3.83;;
12224;SDS011;6175;50.956;11.064;2023-02-01T04:43:15;9.23;;;4.32;;
12224;SDS011;6175;50.956;11.064;2023-02-01T04:45:46;7.75;;;4.28;;
12224;SDS011;6175;50.956;11.064;2023-02-01T04:48:13;8.20;;;4.38;;
12224;SDS011;6175;50.956;11.064;2023-02-01T04:50:41;11.90;;;4.55;;
12224;SDS011;6175;50.956;11.064;2023-02-01T04:53:10;7.70;;;4.80;;
12224;SDS011;6175;50.956;11.064;2023-02-01T04:55:37;7.57;;;4.35;;
12224;SDS011;6175;50.956;11.064;2023-02-01T04:58:04;8.70;;;4.13;;
12224;SDS011;6175;50.956;11.064;2023-02-01T05:00:32;7.47;;;3.72;;
12224;SDS011;6175;50.956;11.064;2023-02-01T05:02:59;8.23;;;4.45;;
12224;SDS011;6175;50.956;11.064;2023-02-01T05:05:27;12.70;;;4.32;;
12224;SDS011;6175;50.956;11.064;2023-02-01T05:07:54;11.15;;;4.07;;
12224;SDS011;6175;50.956;11.064;2023-02-01T05:10:21;11.35;;;4.05;;
12224;SDS011;6175;50.956;11.064;2023-02-01T05:12:48;9.65;;;3.90;;
12224;SDS011;6175;50.956;11.064;2023-02-01T05:15:34;9.00;;;4.03;;
12224;SDS011;6175;50.956;11.064;2023-02-01T05:18:02;8.35;;;3.83;;
12224;SDS011;6175;50.956;11.064;2023-02-01T05:20:29;7.78;;;3.80;;
12224;SDS011;6175;50.956;11.064;2023-02-01T05:22:56;6.85;;;3.40;;
12224;SDS011;6175;50.956;11.064;2023-02-01T05:25:23;10.48;;;4.25;;
12224;SDS011;6175;50.956;11.064;2023-02-01T05:27:50;7.75;;;3.58;;
12224;SDS011;6175;50.956;11.064;2023-02-01T05:30:17;8.88;;;4.03;;
12224;SDS011;6175;50.956;11.064;2023-02-01T05:32:46;9.90;;;3.90;;
12224;SDS011;6175;50.956;11.064;2023-02-01T05:35:16;11.75;;;4.07;;
12224;SDS011;6175;50.956;11.064;2023-02-01T05:37:43;12.10;;;3.90;;
12224;SDS011;6175;50.956;11.064;2023-02-01T05:40:10;10.75;;;3.90;;
12224;SDS011;6175;50.956;11.064;2023-02-01T05:42:37;7.72;;;3.65;;
12224;SDS011;6175;50.956;11.064;2023-02-01T05:45:05;7.68;;;3.63;;
12224;SDS011;6175;50.956;11.064;2023-02-01T05:47:33;9.13;;;3.90;;
12224;SDS011;6175;50.956;11.064;2023-02-01T05:50:02;8.77;;;3.42;;
12224;SDS011;6175;50.956;11.064;2023-02-01T05:52:29;12.63;;;4.68;;
12224;SDS011;6175;50.956;11.064;2023-02-01T05:54:56;9.38;;;3.42;;
12224;SDS011;6175;50.956;11.064;2023-02-01T05:57:23;10.52;;;3.80;;
12224;SDS011;6175;50.956;11.064;2023-02-01T05:59:50;8.55;;;3.92;;
12224;SDS011;6175;50.956;11.064;2023-02-01T06:02:17;7.20;;;3.53;;
12224;SDS011;6175;50.956;11.064;2023-02-01T06:04:44;9.07;;;3.80;;
12224;SDS011;6175;50.956;11.064;2023-02-01T06:07:13;7.35;;;3.47;;
12224;SDS011;6175;50.956;11.064;2023-02-01T06:09:40;5.32;;;3.10;;
12224;SDS011;6175;50.956;11.064;2023-02-01T06:12:07;9.77;;;3.78;;
12224;SDS011;6175;50.956;11.064;2023-02-01T06:14:34;6.45;;;3.13;;
12224;SDS011;6175;50.956;11.064;2023-02-01T06:17:02;6.57;;;3.45;;
12224;SDS011;6175;50.956;11.064;2023-02-01T06:19:30;8.27;;;3.60;;
12224;SDS011;6175;50.956;11.064;2023-02-01T06:21:57;7.38;;;3.45;;
12224;SDS011;6175;50.956;11.064;2023-02-01T06:24:26;7.28;;;2.92;;
12224;SDS011;6175;50.956;11.064;2023-02-01T06:26:53;8.70;;;3.45;;
12224;SDS011;6175;50.956;11.064;2023-02-01T06:29:20;7.18;;;3.67;;
12224;SDS011;6175;50.956;11.064;2023-02-01T06:31:47;7.32;;;3.35;;
12224;SDS011;6175;50.956;11.064;2023-02-01T06:34:15;9.43;;;3.53;;
12224;SDS011;6175;50.956;11.064;2023-02-01T06:36:42;5.70;;;3.30;;
12224;SDS011;6175;50.956;11.064;2023-02-01T06:39:10;8.23;;;3.00;;
12224;SDS011;6175;50.956;11.064;2023-02-01T06:41:42;7.20;;;3.00;;
12224;SDS011;6175;50.956;11.064;2023-02-01T06:44:08;5.13;;;3.00;;
12224;SDS011;6175;50.956;11.064;2023-02-01T06:46:36;8.40;;;3.15;;
12224;SDS011;6175;50.956;11.064;2023-02-01T06:49:03;9.05;;;3.20;;
12224;SDS011;6175;50.956;11.064;2023-02-01T06:51:30;8.25;;;3.00;;
12224;SDS011;6175;50.956;11.064;2023-02-01T06:53:57;10.45;;;3.50;;
12224;SDS011;6175;50.956;11.064;2023-02-01T06:56:25;9.57;;;3.42;;
12224;SDS011;6175;50.956;11.064;2023-02-01T06:58:53;7.93;;;3.15;;
12224;SDS011;6175;50.956;11.064;2023-02-01T07:01:20;8.15;;;3.00;;
12224;SDS011;6175;50.956;11.064;2023-02-01T07:03:48;7.25;;;3.25;;
12224;SDS011;6175;50.956;11.064;2023-02-01T07:06:16;7.95;;;2.95;;
12224;SDS011;6175;50.956;11.064;2023-02-01T07:08:44;7.85;;;3.03;;
12224;SDS011;6175;50.956;11.064;2023-02-01T07:11:11;8.10;;;3.42;;
12224;SDS011;6175;50.956;11.064;2023-02-01T07:13:39;7.53;;;2.75;;
12224;SDS011;6175;50.956;11.064;2023-02-01T07:16:09;7.90;;;2.97;;
12224;SDS011;6175;50.956;11.064;2023-02-01T07:18:36;6.15;;;2.75;;
12224;SDS011;6175;50.956;11.064;2023-02-01T07:21:04;7.57;;;3.05;;
12224;SDS011;6175;50.956;11.064;2023-02-01T07:23:31;6.63;;;2.90;;
12224;SDS011;6175;50.956;11.064;2023-02-01T07:25:59;8.15;;;2.78;;
12224;SDS011;6175;50.956;11.064;2023-02-01T07:28:28;7.97;;;3.55;;
12224;SDS011;6175;50.956;11.064;2023-02-01T07:31:01;9.32;;;3.47;;
12224;SDS011;6175;50.956;11.064;2023-02-01T07:33:29;6.85;;;3.13;;
12224;SDS011;6175;50.956;11.064;2023-02-01T07:35:56;7.57;;;3.33;;
12224;SDS011;6175;50.956;11.064;2023-02-01T07:38:23;8.43;;;3.53;;
12224;SDS011;6175;50.956;11.064;2023-02-01T07:40:50;9.88;;;3.55;;
12224;SDS011;6175;50.956;11.064;2023-02-01T07:43:17;7.97;;;3.00;;
12224;SDS011;6175;50.956;11.064;2023-02-01T07:45:49;7.72;;;3.28;;
12224;SDS011;6175;50.956;11.064;2023-02-01T07:48:17;6.85;;;3.22;;
12224;SDS011;6175;50.956;11.064;2023-02-01T07:50:46;8.10;;;2.80;;
12224;SDS011;6175;50.956;11.064;2023-02-01T07:53:13;9.35;;;3.42;;
12224;SDS011;6175;50.956;11.064;2023-02-01T07:55:40;7.57;;;3.03;;
12224;SDS011;6175;50.956;11.064;2023-02-01T07:58:07;6.75;;;2.50;;
12224;SDS011;6175;50.956;11.064;2023-02-01T08:00:34;7.32;;;3.13;;
12224;SDS011;6175;50.956;11.064;2023-02-01T08:03:19;5.57;;;3.00;;
12224;SDS011;6175;50.956;11.064;2023-02-01T08:05:49;5.72;;;3.00;;
12224;SDS011;6175;50.956;11.064;2023-02-01T08:08:20;6.75;;;3.10;;
12224;SDS011;6175;50.956;11.064;2023-02-01T08:10:47;11.60;;;4.47;;
12224;SDS011;6175;50.956;11.064;2023-02-01T08:13:14;8.50;;;3.42;;
12224;SDS011;6175;50.956;11.064;2023-02-01T08:15:41;6.60;;;3.00;;
12224;SDS011;6175;50.956;11.064;2023-02-01T08:18:08;6.97;;;3.30;;
12224;SDS011;6175;50.956;11.064;2023-02-01T08:20:36;8.40;;;2.88;;
12224;SDS011;6175;50.956;11.064;2023-02-01T08:23:08;8.00;;;3.75;;
12224;SDS011;6175;50.956;11.064;2023-02-01T08:25:35;9.18;;;3.38;;
12224;SDS011;6175;50.956;11.064;2023-02-01T08:28:04;12.23;;;3.70;;
12224;SDS011;6175;50.956;11.064;2023-02-01T08:30:32;10.88;;;3.50;;
12224;SDS011;6175;50.956;11.064;2023-02-01T08:32:59;9.88;;;3.63;;
12224;SDS011;6175;50.956;11.064;2023-02-01T08:35:26;10.10;;;4.72;;
12224;SDS011;6175;50.956;11.064;2023-02-01T08:37:52;8.95;;;3.92;;
12224;SDS011;6175;50.956;11.064;2023-02-01T08:40:21;8.10;;;3.88;;
12224;SDS011;6175;50.956;11.064;2023-02-01T08:42:48;7.68;;;3.50;;
12224;SDS011;6175;50.956;11.064;2023-02-01T08:45:19;7.68;;;3.88;;
12224;SDS011;6175;50.956;11.064;2023-02-01T08:47:47;6.88;;;3.83;;
12224;SDS011;6175;50.956;11.064;2023-02-01T08:50:14;8.00;;;3.80;;
12224;SDS011;6175;50.956;11.064;2023-02-01T08:52:41;9.50;;;3.70;;
12224;SDS011;6175;50.956;11.064;2023-02-01T08:55:09;9.05;;;4.07;;
12224;SDS011;6175;50.956;11.064;2023-02-01T08:57:38;13.68;;;3.78;;
12224;SDS011;6175;50.956;11.064;2023-02-01T09:00:05;12.57;;;4.07;;
12224;SDS011;6175;50.956;11.064;2023-02-01T09:02:35;7.18;;;3.50;;
12224;SDS011;6175;50.956;11.064;2023-02-01T09:05:02;11.18;;;3.40;;
12224;SDS011;6175;50.956;11.064;2023-02-01T09:07:29;8.00;;;3.75;;
12224;SDS011;6175;50.956;11.064;2023-02-01T09:09:57;6.78;;;3.22;;
12224;SDS011;6175;50.956;11.064;2023-02-01T09:12:26;7.50;;;3.13;;
12224;SDS011;6175;50.956;11.064;2023-02-01T09:14:55;6.32;;;3.03;;
12224;SDS011;6175;50.956;11.064;2023-02-01T09:17:24;6.38;;;3.50;;
12224;SDS011;6175;50.956;11.064;2023-02-01T09:19:51;7.93;;;2.88;;
12224;SDS011;6175;50.956;11.064;2023-02-01T09:22:18;9.70;;;3.17;;
12224;SDS011;6175;50.956;11.064;2023-02-01T09:24:46;5.95;;;2.90;;
12224;SDS011;6175;50.956;11.064;2023-02-01T09:27:13;6.50;;;2.97;;
12224;SDS011;6175;50.956;11.064;2023-02-01T09:29:40;7.03;;;3.30;;
12224;SDS011;6175;50.956;11.064;2023-02-01T09:32:08;5.82;;;3.10;;
12224;SDS011;6175;50.956;11.064;2023-02-01T09:34:35;7.55;;;3.20;;
12224;SDS011;6175;50.956;11.064;2023-02-01T09:37:02;6.78;;;2.88;;
12224;SDS011;6175;50.956;11.064;2023-02-01T09:39:29;5.85;;;3.00;;
12224;SDS011;6175;50.956;11.064;2023-02-01T09:41:59;4.57;;;2.80;;
12224;SDS011;6175;50.956;11.064;2023-02-01T09:44:44;6.53;;;3.33;;
12224;SDS011;6175;50.956;11.064;2023-02-01T09:47:26;6.38;;;3.00;;
12224;SDS011;6175;50.956;11.064;2023-02-01T09:49:55;8.20;;;3.28;;
12224;SDS011;6175;50.956;11.064;2023-02-01T09:52:25;5.25;;;3.00;;
12224;SDS011;6175;50.956;11.064;2023-02-01T09:55:01;6.47;;;3.47;;
12224;SDS011;6175;50.956;11.064;2023-02-01T09:57:35;6.00;;;3.42;;
12224;SDS011;6175;50.956;11.064;2023-02-01T10:00:09;7.88;;;4.05;;
12224;SDS011;6175;50.956;11.064;2023-02-01T10:02:44;7.28;;;3.55;;
12224;SDS011;6175;50.956;11.064;2023-02-01T10:05:12;5.80;;;2.80;;
12224;SDS011;6175;50.956;11.064;2023-02-01T10:07:43;7.40;;;3.30;;
12224;SDS011;6175;50.956;11.064;2023-02-01T10:10:19;5.68;;;3.13;;
12224;SDS011;6175;50.956;11.064;2023-02-01T10:15:57;6.78;;;3.13;;
12224;SDS011;6175;50.956;11.064;2023-02-01T10:18:44;7.72;;;2.97;;
12224;SDS011;6175;50.956;11.064;2023-02-01T10:21:32;6.70;;;2.53;;
12224;SDS011;6175;50.956;11.064;2023-02-01T10:24:18;5.63;;;2.92;;
12224;SDS011;6175;50.956;11.064;2023-02-01T10:27:12;7.72;;;2.85;;
12224;SDS011;6175;50.956;11.064;2023-02-01T10:29:41;7.63;;;3.00;;
12224;SDS011;6175;50.956;11.064;2023-02-01T10:32:12;10.00;;;4.10;;
12224;SDS011;6175;50.956;11.064;2023-02-01T10:37:15;7.30;;;2.88;;
12224;SDS011;6175;50.956;11.064;2023-02-01T10:39:55;6.22;;;2.83;;
12224;SDS011;6175;50.956;11.064;2023-02-01T10:42:24;6.53;;;2.83;;
12224;SDS011;6175;50.956;11.064;2023-02-01T10:44:52;9.45;;;3.15;;
12224;SDS011;6175;50.956;11.064;2023-02-01T10:47:23;12.05;;;3.47;;
12224;SDS011;6175;50.956;11.064;2023-02-01T10:49:54;8.43;;;3.20;;
12224;SDS011;6175;50.956;11.064;2023-02-01T10:52:29;9.75;;;2.67;;
12224;SDS011;6175;50.956;11.064;2023-02-01T10:58:05;11.07;;;2.95;;
12224;SDS011;6175;50.956;11.064;2023-02-01T11:00:38;5.78;;;2.35;;
12224;SDS011;6175;50.956;11.064;2023-02-01T11:03:21;7.88;;;2.42;;
12224;SDS011;6175;50.956;11.064;2023-02-01T11:05:56;4.47;;;2.50;;
12224;SDS011;6175;50.956;11.064;2023-02-01T11:08:23;9.70;;;3.10;;
12224;SDS011;6175;50.956;11.064;2023-02-01T11:10:56;8.38;;;2.58;;
12224;SDS011;6175;50.956;11.064;2023-02-01T11:13:28;6.38;;;2.40;;
12224;SDS011;6175;50.956;11.064;2023-02-01T11:15:57;7.60;;;2.58;;
12224;SDS011;6175;50.956;11.064;2023-02-01T11:18:25;7.40;;;2.90;;
12224;SDS011;6175;50.956;11.064;2023-02-01T11:20:55;5.45;;;2.45;;
12224;SDS011;6175;50.956;11.064;2023-02-01T11:23:23;4.93;;;2.65;;
12224;SDS011;6175;50.956;11.064;2023-02-01T11:25:52;3.80;;;2.20;;
12224;SDS011;6175;50.956;11.064;2023-02-01T11:28:22;4.50;;;2.75;;
12224;SDS011;6175;50.956;11.064;2023-02-01T11:30:53;4.47;;;2.30;;
12224;SDS011;6175;50.956;11.064;2023-02-01T11:33:24;4.97;;;2.30;;
12224;SDS011;6175;50.956;11.064;2023-02-01T11:35:56;5.40;;;2.60;;
12224;SDS011;6175;50.956;11.064;2023-02-01T11:38:26;4.50;;;2.20;;
12224;SDS011;6175;50.956;11.064;2023-02-01T11:40:55;6.43;;;3.08;;
12224;SDS011;6175;50.956;11.064;2023-02-01T11:43:24;5.22;;;2.67;;
12224;SDS011;6175;50.956;11.064;2023-02-01T11:45:56;6.60;;;2.80;;
12224;SDS011;6175;50.956;11.064;2023-02-01T11:48:25;3.20;;;2.05;;
12224;SDS011;6175;50.956;11.064;2023-02-01T11:50:59;3.40;;;2.35;;
12224;SDS011;6175;50.956;11.064;2023-02-01T11:53:37;5.65;;;2.90;;
12224;SDS011;6175;50.956;11.064;2023-02-01T11:56:16;7.18;;;2.75;;
12224;SDS011;6175;50.956;11.064;2023-02-01T11:59:01;5.03;;;2.60;;
12224;SDS011;6175;50.956;11.064;2023-02-01T12:01:51;5.57;;;2.38;;
12224;SDS011;6175;50.956;11.064;2023-02-01T12:04:44;11.45;;;3.35;;
12224;SDS011;6175;50.956;11.064;2023-02-01T12:07:40;3.53;;;2.33;;
12224;SDS011;6175;50.956;11.064;2023-02-01T12:10:19;3.58;;;2.28;;
12224;SDS011;6175;50.956;11.064;2023-02-01T12:12:58;6.20;;;3.20;;
12224;SDS011;6175;50.956;11.064;2023-02-01T12:15:35;7.43;;;2.53;;
12224;SDS011;6175;50.956;11.064;2023-02-01T12:18:32;8.60;;;2.70;;
12224;SDS011;6175;50.956;11.064;2023-02-01T12:21:22;6.68;;;2.60;;
12224;SDS011;6175;50.956;11.064;2023-02-01T12:24:01;5.50;;;2.90;;
12224;SDS011;6175;50.956;11.064;2023-02-01T12:26:47;8.40;;;2.70;;
12224;SDS011;6175;50.956;11.064;2023-02-01T12:29:29;6.72;;;2.97;;
12224;SDS011;6175;50.956;11.064;2023-02-01T12:32:02;8.10;;;2.83;;
12224;SDS011;6175;50.956;11.064;2023-02-01T12:34:45;8.40;;;2.88;;
12224;SDS011;6175;50.956;11.064;2023-02-01T12:37:30;8.00;;;3.33;;
12224;SDS011;6175;50.956;11.064;2023-02-01T12:40:16;6.55;;;2.67;;
12224;SDS011;6175;50.956;11.064;2023-02-01T12:42:53;6.07;;;3.25;;
12224;SDS011;6175;50.956;11.064;2023-02-01T12:45:31;4.78;;;2.63;;
12224;SDS011;6175;50.956;11.064;2023-02-01T12:48:05;7.35;;;3.08;;
12224;SDS011;6175;50.956;11.064;2023-02-01T12:50:47;7.55;;;3.00;;
12224;SDS011;6175;50.956;11.064;2023-02-01T12:53:19;5.13;;;3.25;;
12224;SDS011;6175;50.956;11.064;2023-02-01T12:55:52;5.45;;;2.97;;
12224;SDS011;6175;50.956;11.064;2023-02-01T12:58:22;5.65;;;2.83;;
12224;SDS011;6175;50.956;11.064;2023-02-01T13:00:54;9.38;;;3.65;;
12224;SDS011;6175;50.956;11.064;2023-02-01T13:03:28;5.10;;;3.17;;
12224;SDS011;6175;50.956;11.064;2023-02-01T13:06:02;7.75;;;3.33;;
12224;SDS011;6175;50.956;11.064;2023-02-01T13:08:36;8.18;;;3.53;;
12224;SDS011;6175;50.956;11.064;2023-02-01T13:11:11;6.63;;;3.55;;
12224;SDS011;6175;50.956;11.064;2023-02-01T13:13:45;6.72;;;3.20;;
12224;SDS011;6175;50.956;11.064;2023-02-01T13:16:27;8.77;;;3.15;;
12224;SDS011;6175;50.956;11.064;2023-02-01T13:18:59;7.50;;;3.28;;
12224;SDS011;6175;50.956;11.064;2023-02-01T13:21:31;6.97;;;3.13;;
12224;SDS011;6175;50.956;11.064;2023-02-01T13:24:01;5.95;;;3.05;;
12224;SDS011;6175;50.956;11.064;2023-02-01T13:26:30;7.43;;;2.92;;
12224;SDS011;6175;50.956;11.064;2023-02-01T13:28:57;6.95;;;2.95;;
12224;SDS011;6175;50.956;11.064;2023-02-01T13:31:35;5.88;;;3.13;;
12224;SDS011;6175;50.956;11.064;2023-02-01T13:37:23;4.95;;;2.70;;
12224;SDS011;6175;50.956;11.064;2023-02-01T13:39:59;9.20;;;3.30;;
12224;SDS011;6175;50.956;11.064;2023-02-01T13:42:42;8.70;;;3.50;;
12224;SDS011;6175;50.956;11.064;2023-02-01T13:45:15;5.18;;;2.95;;
12224;SDS011;6175;50.956;11.064;2023-02-01T13:47:45;6.75;;;3.13;;
12224;SDS011;6175;50.956;11.064;2023-02-01T13:50:19;6.72;;;2.75;;
12224;SDS011;6175;50.956;11.064;2023-02-01T13:52:53;6.75;;;3.40;;
12224;SDS011;6175;50.956;11.064;2023-02-01T13:55:26;5.50;;;2.95;;
12224;SDS011;6175;50.956;11.064;2023-02-01T13:58:01;7.28;;;4.22;;
12224;SDS011;6175;50.956;11.064;2023-02-01T14:00:38;8.07;;;3.17;;
12224;SDS011;6175;50.956;11.064;2023-02-01T14:03:08;6.97;;;3.08;;
12224;SDS011;6175;50.956;11.064;2023-02-01T14:05:59;8.43;;;3.25;;
12224;SDS011;6175;50.956;11.064;2023-02-01T14:08:45;7.82;;;2.60;;
12224;SDS011;6175;50.956;11.064;2023-02-01T14:11:31;7.72;;;2.95;;
12224;SDS011;6175;50.956;11.064;2023-02-01T14:23:28;6.88;;;3.13;;
12224;SDS011;6175;50.956;11.064;2023-02-01T14:26:02;5.97;;;3.20;;
12224;SDS011;6175;50.956;11.064;2023-02-01T14:28:32;3.90;;;2.67;;
12224;SDS011;6175;50.956;11.064;2023-02-01T14:31:12;4.78;;;2.67;;
12224;SDS011;6175;50.956;11.064;2023-02-01T14:33:55;5.85;;;3.13;;
12224;SDS011;6175;50.956;11.064;2023-02-01T14:36:24;6.60;;;3.30;;
12224;SDS011;6175;50.956;11.064;2023-02-01T14:38:52;8.23;;;3.42;;
12224;SDS011;6175;50.956;11.064;2023-02-01T14:41:25;7.38;;;2.85;;
12224;SDS011;6175;50.956;11.064;2023-02-01T14:44:21;8.88;;;2.90;;
12224;SDS011;6175;50.956;11.064;2023-02-01T14:49:58;7.40;;;3.38;;
12224;SDS011;6175;50.956;11.064;2023-02-01T14:52:51;6.38;;;2.83;;
12224;SDS011;6175;50.956;11.064;2023-02-01T14:55:33;6.68;;;2.75;;
12224;SDS011;6175;50.956;11.064;2023-02-01T14:58:05;6.78;;;2.50;;
12224;SDS011;6175;50.956;11.064;2023-02-01T15:00:41;6.50;;;2.60;;
12224;SDS011;6175;50.956;11.064;2023-02-01T15:03:23;5.82;;;3.00;;
12224;SDS011;6175;50.956;11.064;2023-02-01T15:06:02;5.97;;;3.15;;
12224;SDS011;6175;50.956;11.064;2023-02-01T15:08:32;5.07;;;2.92;;
12224;SDS011;6175;50.956;11.064;2023-02-01T15:11:02;5.28;;;2.70;;
12224;SDS011;6175;50.956;11.064;2023-02-01T15:13:34;6.07;;;2.55;;
12224;SDS011;6175;50.956;11.064;2023-02-01T15:16:02;7.13;;;2.65;;
12224;SDS011;6175;50.956;11.064;2023-02-01T15:18:29;7.00;;;3.33;;
12224;SDS011;6175;50.956;11.064;2023-02-01T15:20:56;5.13;;;2.55;;
12224;SDS011;6175;50.956;11.064;2023-02-01T15:23:25;5.20;;;2.53;;
12224;SDS011;6175;50.956;11.064;2023-02-01T15:25:53;3.97;;;1.83;;
12224;SDS011;6175;50.956;11.064;2023-02-01T15:28:20;5.03;;;2.75;;
12224;SDS011;6175;50.956;11.064;2023-02-01T15:30:52;4.60;;;2.42;;
12224;SDS011;6175;50.956;11.064;2023-02-01T15:33:20;3.83;;;2.10;;
12224;SDS011;6175;50.956;11.064;2023-02-01T15:35:48;5.00;;;2.65;;
12224;SDS011;6175;50.956;11.064;2023-02-01T15:38:35;5.53;;;2.30;;